createdAt,value
2022-08-10T00:01:53.850Z,101666.00
2022-08-10T00:04:23.886Z,101665.00
2022-08-10T00:06:55.817Z,101665.00
2022-08-10T00:09:24.479Z,101673.00
2022-08-10T00:11:52.146Z,101668.00
2022-08-10T00:14:19.876Z,101665.00
2022-08-10T00:16:48.033Z,101666.00
2022-08-10T00:19:18.492Z,101664.00
2022-08-10T00:21:47.691Z,101673.00
2022-08-10T00:24:15.707Z,101674.00
2022-08-10T00:27:51.709Z,101678.00
2022-08-10T00:29:31.708Z,101678.00
2022-08-10T00:31:59.798Z,101675.00
2022-08-10T00:34:29.271Z,101679.00
2022-08-10T00:36:57.772Z,101680.00
2022-08-10T00:39:26.665Z,101680.00
2022-08-10T00:42:01.892Z,101671.00
2022-08-10T00:45:01.375Z,101673.00
2022-08-10T00:47:36.721Z,101671.00
2022-08-10T00:50:07.131Z,101673.00
2022-08-10T00:52:36.712Z,101668.00
2022-08-10T00:55:06.610Z,101670.00
2022-08-10T00:57:35.821Z,101666.00
2022-08-10T01:00:06.650Z,101654.00
2022-08-10T01:02:34.813Z,101658.00
2022-08-10T01:05:10.262Z,101649.00
2022-08-10T01:07:59.687Z,101645.00
2022-08-10T01:11:07.205Z,101638.00
2022-08-10T01:14:38.665Z,101638.00
2022-08-10T01:17:50.421Z,101635.00
2022-08-10T01:21:15.202Z,101634.00
2022-08-10T01:24:31.256Z,101630.00
2022-08-10T01:27:54.600Z,101630.00
2022-08-10T01:30:25.005Z,101636.00
2022-08-10T01:33:06.060Z,101631.00
2022-08-10T01:35:47.857Z,101625.00
2022-08-10T01:38:24.143Z,101626.00
2022-08-10T01:41:05.031Z,101634.00
2022-08-10T01:43:40.486Z,101633.00
2022-08-10T01:46:11.657Z,101626.00
2022-08-10T01:48:52.349Z,101622.00
2022-08-10T01:51:28.150Z,101634.00
2022-08-10T01:54:06.265Z,101620.00
2022-08-10T01:56:40.356Z,101631.00
2022-08-10T01:59:42.288Z,101630.00
2022-08-10T02:02:23.956Z,101625.00
2022-08-10T02:04:53.850Z,101629.00
2022-08-10T02:07:25.765Z,101633.00
2022-08-10T02:09:55.896Z,101627.00
2022-08-10T02:12:29.490Z,101635.00
2022-08-10T02:15:03.801Z,101637.00
2022-08-10T02:17:57.545Z,101621.00
2022-08-10T02:20:47.613Z,101638.00
2022-08-10T02:23:29.917Z,101639.00
2022-08-10T02:26:01.242Z,101641.00
2022-08-10T02:28:32.695Z,101633.00
2022-08-10T02:31:23.532Z,101644.00
2022-08-10T02:33:57.163Z,101643.00
2022-08-10T02:36:31.579Z,101648.00
2022-08-10T02:39:07.720Z,101640.00
2022-08-10T02:45:27.429Z,101645.00
2022-08-10T02:45:53.462Z,101639.00
2022-08-10T02:48:27.903Z,101646.00
2022-08-10T02:51:02.657Z,101649.00
2022-08-10T02:53:55.575Z,101648.00
2022-08-10T02:56:34.341Z,101642.00
2022-08-10T02:59:17.455Z,101644.00
2022-08-10T03:01:49.851Z,101647.00
2022-08-10T03:04:21.056Z,101641.00
2022-08-10T03:07:13.916Z,101644.00
2022-08-10T03:09:43.682Z,101639.00
2022-08-10T03:12:35.036Z,101645.00
2022-08-10T03:15:03.822Z,101650.00
2022-08-10T03:17:33.598Z,101645.00
2022-08-10T03:20:35.674Z,101639.00
2022-08-10T03:22:52.414Z,101638.00
2022-08-10T03:25:24.347Z,101630.00
2022-08-10T03:27:53.651Z,101635.00
2022-08-10T03:30:29.384Z,101631.00
2022-08-10T03:33:05.696Z,101637.00
2022-08-10T03:35:33.953Z,101642.00
2022-08-10T03:38:02.079Z,101629.00
2022-08-10T03:40:45.296Z,101636.00
2022-08-10T03:43:24.176Z,101638.00
2022-08-10T03:45:59.329Z,101640.00
2022-08-10T03:48:46.912Z,101639.00
2022-08-10T03:51:20.273Z,101637.00
2022-08-10T03:54:03.839Z,101640.00
2022-08-10T03:56:39.552Z,101636.00
2022-08-10T03:59:13.727Z,101638.00
2022-08-10T04:02:52.007Z,101638.00
2022-08-10T04:04:34.750Z,101636.00
2022-08-10T04:07:03.871Z,101631.00
2022-08-10T04:09:53.491Z,101636.00
2022-08-10T04:12:24.466Z,101643.00
2022-08-10T04:14:53.557Z,101637.00
2022-08-10T04:18:03.908Z,101635.00
2022-08-10T04:20:18.646Z,101636.00
2022-08-10T04:22:52.111Z,101635.00
2022-08-10T04:25:22.142Z,101639.00
2022-08-10T04:27:51.296Z,101637.00
2022-08-10T04:30:19.021Z,101638.00
2022-08-10T04:32:52.547Z,101643.00
2022-08-10T04:35:21.639Z,101636.00
2022-08-10T04:37:52.098Z,101638.00
2022-08-10T04:40:25.209Z,101642.00
2022-08-10T04:43:11.227Z,101639.00
2022-08-10T04:45:49.283Z,101643.00
2022-08-10T04:48:43.682Z,101655.00
2022-08-10T04:51:19.310Z,101653.00
2022-08-10T04:54:03.888Z,101655.00
2022-08-10T04:56:39.576Z,101649.00
2022-08-10T04:59:09.806Z,101650.00
2022-08-10T05:02:28.469Z,101653.00
2022-08-10T05:04:34.658Z,101654.00
2022-08-10T05:07:16.514Z,101657.00
2022-08-10T05:10:03.125Z,101666.00
2022-08-10T05:12:36.782Z,101658.00
2022-08-10T05:15:13.668Z,101665.00
2022-08-10T05:18:04.682Z,101660.00
2022-08-10T05:20:31.514Z,101666.00
2022-08-10T05:22:59.137Z,101674.00
2022-08-10T05:25:26.529Z,101678.00
2022-08-10T05:27:57.321Z,101671.00
2022-08-10T05:30:25.467Z,101672.00
2022-08-10T05:32:58.191Z,101673.00
2022-08-10T05:35:39.097Z,101671.00
2022-08-10T05:38:23.840Z,101675.00
2022-08-10T05:40:51.593Z,101680.00
2022-08-10T05:43:21.173Z,101682.00
2022-08-10T05:46:16.758Z,101683.00
2022-08-10T05:48:58.659Z,101682.00
2022-08-10T05:51:30.436Z,101691.00
2022-08-10T05:54:04.639Z,101682.00
2022-08-10T05:56:56.455Z,101682.00
2022-08-10T06:00:34.877Z,101679.00
2022-08-10T06:02:33.033Z,101683.00
2022-08-10T06:05:10.793Z,101678.00
2022-08-10T06:07:47.296Z,101674.00
2022-08-10T06:10:31.647Z,101673.00
2022-08-10T06:13:30.332Z,101668.00
2022-08-10T06:16:07.114Z,101677.00
2022-08-10T06:18:36.899Z,101675.00
2022-08-10T06:21:06.413Z,101674.00
2022-08-10T06:23:35.279Z,101682.00
2022-08-10T06:26:08.431Z,101672.00
2022-08-10T06:28:52.802Z,101682.00
2022-08-10T06:31:49.037Z,101679.00
2022-08-10T06:34:26.600Z,101683.00
2022-08-10T06:36:58.475Z,101681.00
2022-08-10T06:39:33.985Z,101677.00
2022-08-10T06:42:18.542Z,101677.00
2022-08-10T06:45:01.230Z,101685.00
2022-08-10T06:47:44.989Z,101682.00
2022-08-10T06:50:56.017Z,101684.00
2022-08-10T06:53:53.434Z,101689.00
2022-08-10T06:56:36.897Z,101692.00
2022-08-10T06:59:45.720Z,101690.00
2022-08-10T07:02:16.554Z,101696.00
2022-08-10T07:04:49.137Z,101690.00
2022-08-10T07:07:22.040Z,101692.00
2022-08-10T07:09:51.671Z,101690.00
2022-08-10T07:12:21.704Z,101689.00
2022-08-10T07:14:51.539Z,101691.00
2022-08-10T07:17:25.079Z,101689.00
2022-08-10T07:20:00.349Z,101689.00
2022-08-10T07:23:27.115Z,101689.00
2022-08-10T07:25:27.957Z,101690.00
2022-08-10T07:28:01.504Z,101700.00
2022-08-10T07:30:35.164Z,101689.00
2022-08-10T07:33:05.720Z,101700.00
2022-08-10T07:35:42.308Z,101692.00
2022-08-10T07:38:23.405Z,101699.00
2022-08-10T07:40:53.500Z,101698.00
2022-08-10T07:43:25.002Z,101695.00
2022-08-10T07:45:53.409Z,101702.00
2022-08-10T07:48:26.868Z,101700.00
2022-08-10T07:51:02.427Z,101701.00
2022-08-10T07:53:43.907Z,101696.00
2022-08-10T07:56:31.933Z,101704.00
2022-08-10T07:59:07.958Z,101694.00
2022-08-10T08:01:42.104Z,101692.00
2022-08-10T08:04:13.020Z,101699.00
2022-08-10T08:06:42.418Z,101695.00
2022-08-10T08:09:11.396Z,101687.00
2022-08-10T08:11:42.842Z,101689.00
2022-08-10T08:14:12.380Z,101688.00
2022-08-10T08:16:46.056Z,101683.00
2022-08-10T08:19:37.471Z,101689.00
2022-08-10T08:24:06.196Z,101683.00
2022-08-10T08:24:53.339Z,101693.00
2022-08-10T08:27:21.639Z,101689.00
2022-08-10T08:29:51.451Z,101696.00
2022-08-10T08:32:23.646Z,101696.00
2022-08-10T08:34:58.272Z,101692.00
2022-08-10T08:38:31.568Z,101685.00
2022-08-10T08:40:34.232Z,101691.00
2022-08-10T08:43:15.107Z,101683.00
2022-08-10T08:46:07.129Z,101690.00
2022-08-10T08:49:07.933Z,101689.00
2022-08-10T08:52:17.162Z,101689.00
2022-08-10T08:56:04.363Z,101682.00
2022-08-10T08:58:18.700Z,101682.00
2022-08-10T09:01:18.627Z,101678.00
2022-08-10T09:04:21.254Z,101683.00
2022-08-10T09:08:00.592Z,101678.00
2022-08-10T09:10:27.093Z,101673.00
2022-08-10T09:13:05.074Z,101675.00
2022-08-10T09:16:01.471Z,101670.00
2022-08-10T09:18:40.552Z,101670.00
2022-08-10T09:21:36.392Z,101665.00
2022-08-10T09:24:20.293Z,101668.00
2022-08-10T09:26:51.961Z,101665.00
2022-08-10T09:29:32.125Z,101666.00
2022-08-10T09:35:39.969Z,101653.00
2022-08-10T09:36:22.617Z,101663.00
2022-08-10T09:38:32.467Z,101667.00
2022-08-10T09:41:32.216Z,101662.00
2022-08-10T09:44:57.674Z,101669.00
2022-08-10T09:47:58.869Z,101664.00
2022-08-10T09:51:22.421Z,101667.00
2022-08-10T09:53:48.568Z,101661.00
2022-08-10T09:56:44.069Z,101660.00
2022-08-10T09:59:27.228Z,101655.00
2022-08-10T10:02:35.978Z,101652.00
2022-08-10T10:05:21.990Z,101642.00
2022-08-10T10:08:42.718Z,101643.00
2022-08-10T10:11:33.961Z,101643.00
2022-08-10T10:15:00.247Z,101638.00
2022-08-10T10:18:07.059Z,101642.00
2022-08-10T10:21:07.986Z,101638.00
2022-08-10T10:24:05.625Z,101646.00
2022-08-10T10:26:59.499Z,101629.00
2022-08-10T10:29:57.657Z,101643.00
2022-08-10T10:32:37.238Z,101625.00
2022-08-10T10:35:27.539Z,101627.00
2022-08-10T10:38:01.756Z,101628.00
2022-08-10T10:40:55.948Z,101628.00
2022-08-10T10:43:32.607Z,101620.00
2022-08-10T10:46:38.325Z,101620.00
2022-08-10T10:49:46.072Z,101623.00
2022-08-10T10:52:55.254Z,101626.00
2022-08-10T10:56:14.912Z,101622.00
2022-08-10T10:59:54.325Z,101622.00
2022-08-10T11:02:47.073Z,101626.00
2022-08-10T11:05:50.641Z,101608.00
2022-08-10T11:08:29.001Z,101620.00
2022-08-10T11:12:00.032Z,101617.00
2022-08-10T11:14:38.785Z,101620.00
2022-08-10T11:17:19.896Z,101605.00
2022-08-10T11:20:10.829Z,101609.00
2022-08-10T11:23:09.755Z,101604.00
2022-08-10T11:25:43.415Z,101615.00
2022-08-10T11:28:30.722Z,101607.00
2022-08-10T11:31:28.352Z,101612.00
2022-08-10T11:34:48.540Z,101595.00
2022-08-10T11:37:20.567Z,101597.00
2022-08-10T11:39:58.029Z,101604.00
2022-08-10T11:42:36.350Z,101600.00
2022-08-10T11:45:06.432Z,101604.00
2022-08-10T11:47:47.177Z,101601.00
2022-08-10T11:50:25.474Z,101598.00
2022-08-10T11:53:16.445Z,101600.00
2022-08-10T11:55:53.010Z,101606.00
2022-08-10T11:58:43.992Z,101607.00
2022-08-10T12:01:15.882Z,101597.00
2022-08-10T12:03:47.561Z,101594.00
2022-08-10T12:06:39.216Z,101595.00
2022-08-10T12:10:08.808Z,101590.00
2022-08-10T12:11:59.917Z,101588.00
2022-08-10T12:15:00.872Z,101592.00
2022-08-10T12:17:52.648Z,101584.00
2022-08-10T12:20:33.590Z,101582.00
2022-08-10T12:23:12.374Z,101584.00
2022-08-10T12:26:10.839Z,101581.00
2022-08-10T12:28:59.185Z,101565.00
2022-08-10T12:32:12.569Z,101566.00
2022-08-10T12:35:22.701Z,101564.00
2022-08-10T12:38:27.286Z,101556.00
2022-08-10T12:41:05.186Z,101550.00
2022-08-10T12:44:06.787Z,101549.00
2022-08-10T12:46:58.199Z,101549.00
2022-08-10T12:50:26.609Z,101544.00
2022-08-10T12:53:11.206Z,101538.00
2022-08-10T12:55:40.834Z,101532.00
2022-08-10T12:58:58.799Z,101536.00
2022-08-10T13:01:16.281Z,101533.00
2022-08-10T13:04:22.574Z,101535.00
2022-08-10T13:06:46.395Z,101536.00
2022-08-10T13:09:15.198Z,101530.00
2022-08-10T13:12:35.689Z,101529.00
2022-08-10T13:15:49.282Z,101519.00
2022-08-10T13:18:34.520Z,101520.00
2022-08-10T13:21:19.855Z,101517.00
2022-08-10T13:24:04.356Z,101512.00
2022-08-10T13:27:09.071Z,101507.00
2022-08-10T13:29:36.111Z,101513.00
2022-08-10T13:32:09.976Z,101506.00
2022-08-10T13:34:45.711Z,101500.00
2022-08-10T13:37:19.736Z,101499.00
2022-08-10T13:39:58.383Z,101493.00
2022-08-10T13:42:34.682Z,101496.00
2022-08-10T13:45:12.355Z,101492.00
2022-08-10T13:47:49.064Z,101482.00
2022-08-10T13:50:35.557Z,101483.00
2022-08-10T13:53:15.451Z,101476.00
2022-08-10T13:55:54.625Z,101482.00
2022-08-10T13:58:31.462Z,101481.00
2022-08-10T14:01:04.075Z,101472.00
2022-08-10T14:03:39.375Z,101474.00
2022-08-10T14:06:12.456Z,101466.00
2022-08-10T14:08:45.486Z,101461.00
2022-08-10T14:11:19.634Z,101463.00
2022-08-10T14:13:56.604Z,101467.00
2022-08-10T14:16:25.030Z,101468.00
2022-08-10T14:18:58.159Z,101465.00
2022-08-10T14:21:25.894Z,101467.00
2022-08-10T14:23:54.451Z,101459.00
2022-08-10T14:26:31.008Z,101465.00
2022-08-10T14:29:19.898Z,101466.00
2022-08-10T14:32:01.815Z,101468.00
2022-08-10T14:36:15.407Z,101463.00
2022-08-10T14:37:56.733Z,101459.00
2022-08-10T14:40:29.025Z,101448.00
2022-08-10T14:43:12.475Z,101439.00
2022-08-10T14:45:49.426Z,101442.00
2022-08-10T14:48:21.303Z,101441.00
2022-08-10T14:50:55.093Z,101435.00
2022-08-10T14:53:34.402Z,101436.00
2022-08-10T14:56:13.490Z,101436.00
2022-08-10T14:58:58.908Z,101427.00
2022-08-10T15:01:59.878Z,101435.00
2022-08-10T15:04:18.827Z,101429.00
2022-08-10T15:07:00.107Z,101420.00
2022-08-10T15:10:00.128Z,101423.00
2022-08-10T15:12:37.097Z,101427.00
2022-08-10T15:15:11.580Z,101425.00
2022-08-10T15:17:53.259Z,101421.00
2022-08-10T15:20:25.115Z,101415.00
2022-08-10T15:23:04.638Z,101424.00
2022-08-10T15:25:36.374Z,101426.00
2022-08-10T15:28:10.762Z,101423.00
2022-08-10T15:30:48.369Z,101421.00
2022-08-10T15:34:02.353Z,101422.00
2022-08-10T15:37:02.439Z,101411.00
2022-08-10T15:40:25.307Z,101414.00
2022-08-10T15:43:26.947Z,101410.00
2022-08-10T15:46:15.984Z,101406.00
2022-08-10T15:48:52.848Z,101406.00
2022-08-10T15:51:53.792Z,101397.00
2022-08-10T15:54:33.257Z,101396.00
2022-08-10T15:57:10.212Z,101404.00
2022-08-10T16:00:07.095Z,101402.00
2022-08-10T16:03:08.778Z,101404.00
2022-08-10T16:06:01.483Z,101402.00
2022-08-10T16:08:57.159Z,101405.00
2022-08-10T16:11:43.689Z,101404.00
2022-08-10T16:14:19.111Z,101408.00
2022-08-10T16:16:52.173Z,101409.00
2022-08-10T16:19:25.643Z,101404.00
2022-08-10T16:22:35.603Z,101399.00
2022-08-10T16:24:59.282Z,101395.00
2022-08-10T16:27:30.587Z,101392.00
2022-08-10T16:30:05.526Z,101392.00
2022-08-10T16:32:34.869Z,101388.00
2022-08-10T16:35:09.340Z,101396.00
2022-08-10T16:37:58.129Z,101391.00
2022-08-10T16:40:29.775Z,101386.00
2022-08-10T16:43:00.692Z,101388.00
2022-08-10T16:45:50.700Z,101383.00
2022-08-10T16:48:48.651Z,101389.00
2022-08-10T16:51:14.215Z,101385.00
2022-08-10T16:53:48.037Z,101384.00
2022-08-10T16:56:17.351Z,101382.00
2022-08-10T16:58:53.841Z,101385.00
2022-08-10T17:01:25.721Z,101382.00
2022-08-10T17:04:07.703Z,101384.00
2022-08-10T17:06:44.636Z,101377.00
2022-08-10T17:09:19.379Z,101379.00
2022-08-10T17:11:54.084Z,101369.00
2022-08-10T17:14:29.189Z,101371.00
2022-08-10T17:17:10.336Z,101372.00
2022-08-10T17:19:45.136Z,101370.00
2022-08-10T17:22:24.169Z,101370.00
2022-08-10T17:24:58.996Z,101373.00
2022-08-10T17:28:04.947Z,101375.00
2022-08-10T17:30:33.882Z,101371.00
2022-08-10T17:33:08.467Z,101371.00
2022-08-10T17:35:37.957Z,101366.00
2022-08-10T17:38:26.473Z,101368.00
2022-08-10T17:41:12.709Z,101379.00
2022-08-10T17:43:58.177Z,101371.00
2022-08-10T17:46:39.229Z,101369.00
2022-08-10T17:49:10.287Z,101373.00
2022-08-10T17:51:40.460Z,101367.00
2022-08-10T17:54:21.514Z,101372.00
2022-08-10T17:56:51.489Z,101368.00
2022-08-10T17:59:23.899Z,101372.00
2022-08-10T18:02:01.418Z,101367.00
2022-08-10T18:04:40.896Z,101362.00
2022-08-10T18:07:11.859Z,101366.00
2022-08-10T18:09:43.191Z,101365.00
2022-08-10T18:12:18.296Z,101361.00
2022-08-10T18:14:58.420Z,101368.00
2022-08-10T18:17:38.156Z,101372.00
2022-08-10T18:20:09.380Z,101359.00
2022-08-10T18:22:49.222Z,101363.00
2022-08-10T18:25:33.009Z,101364.00
2022-08-10T18:28:05.051Z,101365.00
2022-08-10T18:30:48.340Z,101370.00
2022-08-10T18:33:19.283Z,101371.00
2022-08-10T18:35:47.313Z,101368.00
2022-08-10T18:38:16.806Z,101368.00
2022-08-10T18:40:53.951Z,101371.00
2022-08-10T18:44:10.849Z,101369.00
2022-08-10T18:46:24.112Z,101367.00
2022-08-10T18:49:07.245Z,101376.00
2022-08-10T18:51:46.531Z,101371.00
2022-08-10T18:54:39.562Z,101381.00
2022-08-10T18:57:46.503Z,101386.00
2022-08-10T19:00:21.461Z,101385.00
2022-08-10T19:03:15.669Z,101388.00
2022-08-10T19:06:13.804Z,101388.00
2022-08-10T19:08:49.666Z,101388.00
2022-08-10T19:11:42.531Z,101381.00
2022-08-10T19:14:30.956Z,101387.00
2022-08-10T19:18:03.374Z,101386.00
2022-08-10T19:20:49.934Z,101384.00
2022-08-10T19:23:31.408Z,101391.00
2022-08-10T19:26:43.804Z,101388.00
2022-08-10T19:30:08.283Z,101390.00
2022-08-10T19:32:57.713Z,101377.00
2022-08-10T19:36:04.267Z,101388.00
2022-08-10T19:38:49.430Z,101381.00
2022-08-10T19:41:42.178Z,101384.00
2022-08-10T19:44:58.322Z,101378.00
2022-08-10T19:47:39.393Z,101379.00
2022-08-10T19:50:24.248Z,101378.00
2022-08-10T19:53:40.855Z,101377.00
2022-08-10T19:56:56.572Z,101371.00
2022-08-10T20:00:25.499Z,101387.00
2022-08-10T20:03:23.901Z,101379.00
2022-08-10T20:06:18.020Z,101374.00
2022-08-10T20:09:09.395Z,101379.00
2022-08-10T20:11:52.311Z,101384.00
2022-08-10T20:14:29.901Z,101381.00
2022-08-10T20:17:09.331Z,101385.00
2022-08-10T20:19:54.826Z,101389.00
2022-08-10T20:22:38.187Z,101389.00
2022-08-10T20:25:17.728Z,101394.00
2022-08-10T20:28:00.710Z,101384.00
2022-08-10T20:30:36.554Z,101383.00
2022-08-10T20:33:12.569Z,101392.00
2022-08-10T20:36:01.921Z,101395.00
2022-08-10T20:38:46.774Z,101393.00
2022-08-10T20:41:47.011Z,101397.00
2022-08-10T20:44:54.136Z,101395.00
2022-08-10T20:47:53.956Z,101394.00
2022-08-10T20:50:48.947Z,101394.00
2022-08-10T20:53:25.696Z,101392.00
2022-08-10T20:56:00.172Z,101385.00
2022-08-10T20:58:59.860Z,101389.00
2022-08-10T21:02:10.979Z,101395.00
2022-08-10T21:05:25.662Z,101390.00
2022-08-10T21:08:20.501Z,101384.00
2022-08-10T21:11:35.649Z,101375.00
2022-08-10T21:14:28.616Z,101370.00
2022-08-10T21:17:43.707Z,101373.00
2022-08-10T21:20:54.318Z,101373.00
2022-08-10T21:23:30.730Z,101370.00
2022-08-10T21:26:29.925Z,101360.00
2022-08-10T21:29:20.450Z,101364.00
2022-08-10T21:32:36.069Z,101364.00
2022-08-10T21:35:37.766Z,101368.00
2022-08-10T21:38:26.554Z,101370.00
2022-08-10T21:41:19.103Z,101371.00
2022-08-10T21:44:17.549Z,101380.00
2022-08-10T21:47:41.758Z,101387.00
2022-08-10T21:50:34.016Z,101380.00
2022-08-10T21:53:45.328Z,101383.00
2022-08-10T21:56:54.032Z,101380.00
2022-08-10T22:03:24.639Z,101375.00
2022-08-10T22:06:13.908Z,101377.00
2022-08-10T22:09:05.376Z,101373.00
2022-08-10T22:12:00.012Z,101367.00
2022-08-10T22:14:56.322Z,101370.00
2022-08-10T22:18:00.991Z,101380.00
2022-08-10T22:20:54.512Z,101374.00
2022-08-10T22:24:18.805Z,101370.00
2022-08-10T22:27:46.627Z,101369.00
2022-08-10T22:30:39.045Z,101374.00
2022-08-10T22:33:47.617Z,101379.00
2022-08-10T22:37:03.095Z,101372.00
2022-08-10T22:40:23.584Z,101385.00
2022-08-10T22:43:13.947Z,101377.00
2022-08-10T22:46:28.868Z,101370.00
2022-08-10T22:49:02.346Z,101369.00
2022-08-10T22:51:50.925Z,101372.00
2022-08-10T22:54:53.606Z,101376.00
2022-08-10T22:57:39.494Z,101373.00
2022-08-10T23:00:18.653Z,101376.00
2022-08-10T23:02:56.827Z,101381.00
2022-08-10T23:05:29.898Z,101372.00
2022-08-10T23:08:08.895Z,101371.00
2022-08-10T23:10:42.629Z,101370.00
2022-08-10T23:13:29.447Z,101373.00
2022-08-10T23:16:35.030Z,101366.00
2022-08-10T23:19:16.148Z,101368.00
2022-08-10T23:22:08.104Z,101362.00
2022-08-10T23:24:53.781Z,101361.00
2022-08-10T23:27:38.820Z,101360.00
2022-08-10T23:30:17.058Z,101357.00
2022-08-10T23:32:52.286Z,101352.00
2022-08-10T23:36:30.052Z,101349.00
2022-08-10T23:38:17.916Z,101360.00
2022-08-10T23:40:49.953Z,101356.00
2022-08-10T23:43:53.350Z,101361.00
2022-08-10T23:46:24.660Z,101346.00
2022-08-10T23:48:59.409Z,101359.00
2022-08-10T23:51:54.527Z,101351.00
2022-08-10T23:54:25.204Z,101356.00
2022-08-10T23:57:01.120Z,101358.00
2022-08-10T23:59:32.449Z,101342.00
